Time;durP1;ratioP1;P1;durP2;ratioP2;P2;SDS_P1;SDS_P2;PMS_P1;PMS_P2;Temp;Humidity;BMP_temperature;BMP_pressure;BME280_temperature;BME280_humidity;BME280_pressure;Samples;Min_cycle;Max_cycle;Signal;HPM_P1;HPM_P2
2022/03/09 00:01:44;;;;;;;23.25;12.52;;;;;;;0.83;59.67;101126.91;6192492;23;20024;-94
2022/03/09 00:05:28;;;;;;;20.75;11.70;;;;;;;0.86;59.51;101132.13;6193628;23;20020;-95
2022/03/09 00:17:25;;;;;;;21.13;11.40;;;;;;;0.69;60.63;101124.22;6258719;23;20018;-95
2022/03/09 00:24:19;;;;;;;17.75;11.27;;;;;;;0.68;60.27;101122.47;6278288;22;20094;-96
2022/03/09 00:27:23;;;;;;;21.38;12.13;;;;;;;0.65;60.38;101131.16;6285538;22;20443;-94
2022/03/09 00:30:15;;;;;;;23.25;11.65;;;;;;;0.41;60.70;101109.31;6261903;22;20110;-93
2022/03/09 00:32:43;;;;;;;16.95;11.02;;;;;;;0.31;61.05;101101.47;6251812;22;20012;-93
2022/03/09 00:35:12;;;;;;;20.30;11.52;;;;;;;0.33;61.29;101114.47;6252548;22;20073;-94
2022/03/09 00:37:52;;;;;;;21.27;11.52;;;;;;;0.50;61.16;101144.09;6279773;22;20502;-95
2022/03/09 00:40:48;;;;;;;19.30;11.32;;;;;;;0.19;60.77;101092.69;6221742;22;20017;-95
2022/03/09 00:44:43;;;;;;;18.17;11.27;;;;;;;0.58;60.95;101144.16;6282746;22;20098;-95
2022/03/09 00:51:42;;;;;;;21.67;10.20;;;;;;;0.76;60.21;101140.78;6280574;22;20022;-95
2022/03/09 00:54:10;;;;;;;18.75;9.73;;;;;;;0.63;59.73;101105.97;6281221;22;20012;-95
2022/03/09 00:56:37;;;;;;;16.77;9.85;;;;;;;0.66;59.38;101103.34;6282483;22;20011;-96
2022/03/09 00:59:04;;;;;;;16.45;10.32;;;;;;;0.89;59.15;101137.38;6279992;22;20019;-95
2022/03/09 01:01:31;;;;;;;19.58;10.02;;;;;;;0.80;58.98;101106.88;6252261;22;20011;-95
2022/03/09 01:03:59;;;;;;;18.40;10.45;;;;;;;0.79;58.86;101097.31;6278446;22;20065;-95
2022/03/09 01:06:32;;;;;;;16.45;9.00;;;;;;;0.80;58.44;101091.25;6280037;22;20308;-96
2022/03/09 01:09:03;;;;;;;18.45;10.15;;;;;;;0.83;58.45;101099.09;6254510;22;20011;-96
2022/03/09 01:11:34;;;;;;;16.40;9.88;;;;;;;0.89;58.64;101117.38;6280878;22;20065;-95
2022/03/09 01:14:02;;;;;;;14.48;9.27;;;;;;;1.02;57.89;101137.41;6279576;22;20015;-93
2022/03/09 01:16:29;;;;;;;15.68;8.93;;;;;;;1.02;58.16;101137.41;6279606;22;20011;-94
2022/03/09 01:18:57;;;;;;;13.70;9.60;;;;;;;0.75;58.08;101100.81;6254511;22;20012;-95
2022/03/09 01:21:33;;;;;;;15.23;9.77;;;;;;;0.66;58.39;101083.38;6280757;22;20086;-93
2022/03/09 01:24:06;;;;;;;15.20;9.60;;;;;;;0.66;58.18;101099.00;6280871;22;20018;-95
2022/03/09 01:26:34;;;;;;;18.20;9.57;;;;;;;0.66;58.89;101099.00;6282403;22;20008;-94
2022/03/09 01:29:03;;;;;;;15.05;9.32;;;;;;;0.63;58.79;101106.81;6282281;22;20081;-93
2022/03/09 01:31:35;;;;;;;15.73;9.40;;;;;;;0.62;59.26;101122.47;6281862;22;20003;-94
2022/03/09 01:34:02;;;;;;;15.15;9.38;;;;;;;0.40;59.50;101084.13;6282642;22;20023;-95
2022/03/09 01:36:30;;;;;;;15.68;9.13;;;;;;;0.40;59.74;101090.22;6284584;22;20071;-96
2022/03/09 01:38:58;;;;;;;17.27;9.43;;;;;;;0.76;59.15;101138.19;6287602;22;20042;-94
2022/03/09 01:41:29;;;;;;;13.25;8.23;;;;;;;0.65;58.98;101112.03;6294427;22;20022;-94
2022/03/09 01:44:12;;;;;;;16.63;9.45;;;;;;;0.72;58.44;101111.22;6296124;22;20063;-94
2022/03/09 01:46:42;;;;;;;17.83;9.18;;;;;;;0.89;58.16;101119.97;6294076;22;20035;-95
2022/03/09 01:49:10;;;;;;;14.55;10.30;;;;;;;0.66;58.30;101085.13;6285892;22;20034;-95
2022/03/09 01:51:46;;;;;;;16.65;9.43;;;;;;;0.61;58.29;101071.22;6285738;22;20011;-93
2022/03/09 01:54:14;;;;;;;18.55;9.73;;;;;;;0.72;58.59;101094.69;6258942;22;20011;-94
2022/03/09 01:56:44;;;;;;;16.90;9.63;;;;;;;0.79;57.86;101091.28;6281684;22;20007;-94
2022/03/09 01:59:15;;;;;;;16.95;9.48;;;;;;;0.81;57.63;101086.91;6280438;22;20015;-93
2022/03/09 02:01:45;;;;;;;17.60;9.50;;;;;;;0.63;57.84;101061.66;6254089;22;20007;-95
2022/03/09 02:04:22;;;;;;;14.10;9.65;;;;;;;0.63;57.74;101056.47;6253436;22;20011;-95
2022/03/09 02:06:49;;;;;;;19.45;10.70;;;;;;;0.87;58.03;101106.06;6279058;22;20019;-94
2022/03/09 02:12:02;;;;;;;15.30;9.25;;;;;;;0.95;57.83;101121.72;6280796;22;20023;-95
2022/03/09 02:14:36;;;;;;;14.52;9.35;;;;;;;0.93;57.83;101111.31;6279277;22;20021;-93
2022/03/09 02:17:10;;;;;;;16.85;9.98;;;;;;;0.82;57.80;101099.94;6279398;22;20296;-94
2022/03/09 02:19:40;;;;;;;17.48;9.90;;;;;;;0.76;58.39;101122.53;6280581;22;20012;-93
2022/03/09 02:22:19;;;;;;;17.10;10.90;;;;;;;0.44;59.37;101093.72;6278908;22;20008;-93
2022/03/09 02:24:50;;;;;;;19.17;11.70;;;;;;;0.09;60.39;101083.94;6255323;22;20058;-94
2022/03/09 02:27:23;;;;;;;17.90;10.98;;;;;;;-0.09;61.29;101081.22;6279539;22;20018;-93
2022/03/09 02:29:52;;;;;;;16.88;10.65;;;;;;;-0.09;62.91;101110.72;6278546;22;20016;-93
2022/03/09 02:32:23;;;;;;;16.85;10.90;;;;;;;-0.31;62.94;101081.91;6280454;22;20020;-94
2022/03/09 02:34:54;;;;;;;18.42;10.73;;;;;;;-0.41;63.41;101054.94;6254259;22;20016;-94
2022/03/09 02:37:28;;;;;;;16.77;9.80;;;;;;;-0.22;63.30;101090.66;6280772;22;20016;-94
2022/03/09 02:39:56;;;;;;;20.85;12.30;;;;;;;-0.18;62.82;101092.44;6281926;22;20027;-94
2022/03/09 02:42:23;;;;;;;18.52;11.82;;;;;;;-0.34;63.71;101093.19;6281756;22;20063;-95
2022/03/09 02:44:52;;;;;;;22.15;11.75;;;;;;;-0.66;64.46;101058.19;6282621;22;20011;-95
2022/03/09 02:47:19;;;;;;;17.48;11.50;;;;;;;-0.71;65.03;101068.56;6284660;22;20012;-95
2022/03/09 02:49:47;;;;;;;20.60;11.80;;;;;;;-0.78;66.02;101064.13;6286228;22;20428;-94
2022/03/09 02:52:16;;;;;;;20.08;10.93;;;;;;;-0.73;65.99;101084.13;6257053;22;20012;-94
2022/03/09 02:54:46;;;;;;;20.10;11.30;;;;;;;-0.78;66.12;101090.13;6281401;22;20073;-94
2022/03/09 02:57:22;;;;;;;18.80;11.20;;;;;;;-0.96;66.34;101062.25;6286518;22;20000;-95
2022/03/09 02:59:51;;;;;;;20.77;11.52;;;;;;;-0.78;66.97;101109.22;6296612;22;20030;-95
2022/03/09 03:02:18;;;;;;;19.58;11.68;;;;;;;-0.81;66.79;101110.94;6270695;22;20181;-95
2022/03/09 03:04:46;;;;;;;19.65;11.63;;;;;;;-1.04;67.62;101070.81;6284624;22;20015;-94
2022/03/09 03:07:18;;;;;;;17.17;10.48;;;;;;;-0.91;67.90;101098.66;6284126;22;20012;-94
2022/03/09 03:09:45;;;;;;;19.67;11.02;;;;;;;-0.91;68.07;101094.34;6300741;22;20014;-96
2022/03/09 03:12:12;;;;;;;21.73;11.52;;;;;;;-0.89;66.90;101082.25;6302766;22;20080;-96
2022/03/09 03:14:40;;;;;;;17.45;11.30;;;;;;;-0.86;67.21;101097.00;6264857;22;20026;-94
2022/03/09 03:17:07;;;;;;;19.02;11.00;;;;;;;-1.07;67.35;101067.31;6284830;22;20018;-92
2022/03/09 03:19:34;;;;;;;19.73;11.00;;;;;;;-1.14;67.56;101062.91;6284387;22;20350;-94
2022/03/09 03:22:04;;;;;;;19.27;11.75;;;;;;;-1.08;67.37;101078.56;6282405;22;20511;-94
2022/03/09 03:24:33;;;;;;;13.90;8.38;;;;;;;-1.24;68.04;101058.47;6281158;22;20024;-94
2022/03/09 03:27:01;;;;;;;18.42;11.05;;;;;;;-1.29;68.18;101056.69;6282450;22;20012;-95
2022/03/09 03:29:31;;;;;;;18.98;11.10;;;;;;;-1.25;68.29;101061.91;6281889;22;20012;-93
2022/03/09 03:32:10;;;;;;;19.15;11.60;;;;;;;-1.29;68.38;101054.97;6253549;22;20272;-94
2022/03/09 03:34:38;;;;;;;19.73;11.05;;;;;;;-1.16;68.13;101087.16;6253360;22;20121;-93
2022/03/09 03:37:07;;;;;;;20.00;11.38;;;;;;;-1.11;68.53;101107.16;6251616;22;20020;-95
2022/03/09 03:39:35;;;;;;;15.50;10.43;;;;;;;-1.44;68.64;101059.97;6279525;22;20089;-93
2022/03/09 03:42:02;;;;;;;19.17;11.57;;;;;;;-1.34;68.66;101093.00;6281198;22;20012;-93
2022/03/09 03:44:29;;;;;;;20.63;12.23;;;;;;;-1.34;69.41;101082.59;6255598;22;20011;-93
2022/03/09 03:46:56;;;;;;;19.60;12.07;;;;;;;-1.13;69.41;101124.44;6281329;22;20011;-93
2022/03/09 03:49:22;;;;;;;21.20;12.52;;;;;;;-1.26;68.80;101088.75;6282284;22;20331;-93
2022/03/09 03:52:00;;;;;;;22.55;12.45;;;;;;;-1.20;68.70;101101.81;6282086;22;20327;-93
2022/03/09 03:54:50;;;;;;;17.27;10.93;;;;;;;-1.04;68.64;101130.59;6281103;22;20331;-92
2022/03/09 03:57:22;;;;;;;21.50;11.32;;;;;;;-1.20;69.11;101103.53;6280582;22;20050;-92
2022/03/09 03:59:55;;;;;;;19.98;11.68;;;;;;;-1.41;68.66;101079.03;6281083;22;20292;-93
2022/03/09 04:02:24;;;;;;;20.90;12.00;;;;;;;-1.29;69.06;101106.91;6253243;22;20071;-94
2022/03/09 04:04:52;;;;;;;21.25;11.88;;;;;;;-1.34;69.13;101092.13;6279383;22;20012;-93
2022/03/09 04:07:33;;;;;;;20.23;11.63;;;;;;;-1.30;69.20;101104.31;6186758;23;20043;-94
2022/03/09 04:10:00;;;;;;;20.80;12.20;;;;;;;-1.25;69.20;101113.00;6186299;23;20342;-93
2022/03/09 04:12:34;;;;;;;21.33;11.70;;;;;;;-1.28;69.39;101115.59;6186293;23;20013;-93
2022/03/09 04:15:04;;;;;;;20.95;10.88;;;;;;;-1.24;69.18;101123.41;6162150;23;20017;-93
2022/03/09 04:17:41;;;;;;;22.48;11.70;;;;;;;-1.37;69.38;101111.13;6186934;23;20020;-93
2022/03/09 04:20:22;;;;;;;17.10;10.90;;;;;;;-1.46;69.33;101098.91;6187134;23;20017;-94
2022/03/09 04:22:57;;;;;;;20.58;12.27;;;;;;;-1.58;69.56;101071.91;6185991;23;20129;-93
2022/03/09 04:25:26;;;;;;;19.95;11.65;;;;;;;-1.53;69.14;101088.41;6186235;23;20013;-93
2022/03/09 04:27:56;;;;;;;18.98;11.68;;;;;;;-1.40;69.63;101116.28;6186349;23;20354;-93
2022/03/09 04:30:51;;;;;;;18.83;10.80;;;;;;;-1.34;69.55;101129.38;6186379;23;20512;-93
2022/03/09 04:33:22;;;;;;;20.65;11.20;;;;;;;-1.44;70.28;101118.00;6185561;23;20551;-94
2022/03/09 04:35:49;;;;;;;19.30;10.80;;;;;;;-1.62;70.13;101083.97;6186502;23;20130;-93
2022/03/09 04:38:17;;;;;;;19.02;10.65;;;;;;;-1.29;69.97;101137.22;6218967;22;20028;-93
2022/03/09 04:40:44;;;;;;;21.67;11.70;;;;;;;-1.50;69.78;101111.81;6278557;22;20019;-93
2022/03/09 04:43:11;;;;;;;17.13;11.00;;;;;;;-1.54;69.71;101105.72;6279677;22;20016;-95
2022/03/09 04:45:42;;;;;;;18.10;11.23;;;;;;;-1.66;69.73;101089.09;6279852;22;19996;-93
2022/03/09 04:48:10;;;;;;;18.45;10.65;;;;;;;-1.64;69.95;101090.00;6279962;22;20301;-93
2022/03/09 04:50:37;;;;;;;21.10;10.80;;;;;;;-1.25;69.35;101152.84;6254664;22;20015;-93
2022/03/09 04:53:04;;;;;;;20.23;11.85;;;;;;;-1.35;69.31;101125.00;6268230;22;20518;-94
2022/03/09 04:55:31;;;;;;;19.90;10.70;;;;;;;-1.41;69.38;101122.31;6287144;22;20061;-93
2022/03/09 04:58:00;;;;;;;16.40;11.00;;;;;;;-1.55;70.05;101103.97;6279174;22;20071;-93
2022/03/09 05:00:28;;;;;;;17.40;10.73;;;;;;;-1.48;69.91;101110.13;6280059;22;20042;-94
2022/03/09 05:02:56;;;;;;;16.02;10.60;;;;;;;-1.48;69.61;101113.59;6252870;22;20011;-93
2022/03/09 05:05:23;;;;;;;18.48;10.40;;;;;;;-1.59;69.74;101096.13;6281119;22;20015;-93
2022/03/09 05:07:51;;;;;;;19.10;10.75;;;;;;;-1.50;69.32;101104.03;6281076;22;20011;-95
2022/03/09 05:10:18;;;;;;;18.77;9.93;;;;;;;-1.36;68.97;101119.78;6254841;22;20011;-93
2022/03/09 05:12:48;;;;;;;19.00;10.68;;;;;;;-1.34;68.87;101129.38;6278522;22;20022;-94
2022/03/09 05:15:15;;;;;;;16.92;10.38;;;;;;;-1.15;69.09;101151.25;6253863;22;20098;-93
2022/03/09 05:17:49;;;;;;;17.98;10.05;;;;;;;-1.26;68.69;101135.50;6287647;22;20014;-94
2022/03/09 05:20:16;;;;;;;19.38;9.95;;;;;;;-1.15;68.93;101157.34;6262925;22;20016;-95
2022/03/09 05:22:53;;;;;;;17.23;10.07;;;;;;;-1.33;68.50;101131.09;6284315;22;20020;-94
2022/03/09 05:25:22;;;;;;;15.70;9.60;;;;;;;-1.50;69.06;101111.81;6280157;22;20012;-93
2022/03/09 05:27:49;;;;;;;17.48;9.60;;;;;;;-1.32;69.55;101134.59;6249505;22;20020;-95
2022/03/09 05:30:20;;;;;;;14.43;9.02;;;;;;;-1.35;69.00;101130.22;6273833;22;20008;-94
2022/03/09 05:32:48;;;;;;;20.42;10.02;;;;;;;-1.26;68.69;101148.50;6273948;22;20012;-95
2022/03/09 05:35:15;;;;;;;17.50;9.88;;;;;;;-1.31;68.15;101126.81;6248674;22;20235;-95
2022/03/09 05:37:48;;;;;;;15.23;9.13;;;;;;;-1.37;68.01;101118.94;6273150;22;20015;-96
2022/03/09 05:40:19;;;;;;;17.98;9.45;;;;;;;-1.15;68.50;101170.31;6248992;22;20023;-95
2022/03/09 05:42:49;;;;;;;17.77;10.15;;;;;;;-1.23;68.24;101151.16;6274557;22;20035;-94
2022/03/09 05:45:18;;;;;;;16.48;10.10;;;;;;;-1.44;67.84;101111.91;6275271;22;20012;-95
2022/03/09 05:47:55;;;;;;;17.00;9.93;;;;;;;-1.32;68.59;101137.19;6251827;22;20088;-95
2022/03/09 05:50:27;;;;;;;19.02;10.50;;;;;;;-1.34;68.11;101144.06;6275975;22;20012;-93
2022/03/09 05:53:02;;;;;;;17.20;10.85;;;;;;;-1.30;68.76;101169.25;6250752;22;20024;-95
2022/03/09 05:55:28;;;;;;;18.20;10.57;;;;;;;-1.53;68.50;101150.75;6277866;22;20012;-94
2022/03/09 05:57:55;;;;;;;19.85;10.77;;;;;;;-1.62;69.30;101151.50;6254814;22;20077;-96
2022/03/09 06:00:23;;;;;;;17.85;10.85;;;;;;;-1.68;69.94;101159.19;6258483;22;20134;-94
2022/03/09 06:02:51;;;;;;;18.52;10.45;;;;;;;-1.92;70.23;101128.56;6285539;22;20027;-93
2022/03/09 06:05:19;;;;;;;20.10;11.40;;;;;;;-1.80;70.20;101165.06;6255117;22;20079;-94
2022/03/09 06:07:48;;;;;;;23.02;11.50;;;;;;;-1.62;70.90;101190.44;6258916;22;20011;-95
2022/03/09 06:10:17;;;;;;;19.75;11.20;;;;;;;-1.78;70.44;101141.75;6284336;22;20057;-94
2022/03/09 06:12:45;;;;;;;20.33;11.60;;;;;;;-1.56;70.73;101189.66;6288821;22;20263;-95
2022/03/09 06:15:17;;;;;;;21.88;11.68;;;;;;;-1.49;70.04;101196.69;6259193;22;20026;-93
2022/03/09 06:17:48;;;;;;;14.55;8.40;;;;;;;-1.49;70.63;101196.69;6269391;22;20020;-95
2022/03/09 06:20:22;;;;;;;20.10;10.80;;;;;;;-1.64;70.53;101173.09;6262780;22;20023;-96
2022/03/09 06:22:52;;;;;;;17.92;10.82;;;;;;;-1.63;70.24;101169.66;6285509;22;20015;-95
2022/03/09 06:25:21;;;;;;;20.70;11.23;;;;;;;-1.71;70.58;101153.06;6282329;22;20016;-95
2022/03/09 06:27:59;;;;;;;19.33;11.20;;;;;;;-1.58;70.01;101170.59;6278255;22;20106;-95
2022/03/09 06:30:28;;;;;;;18.00;10.65;;;;;;;-1.46;69.77;101176.84;6276240;22;20019;-95
2022/03/09 06:32:56;;;;;;;19.38;11.02;;;;;;;-1.43;69.74;101165.63;6270927;22;20046;-95
2022/03/09 06:35:23;;;;;;;16.10;10.57;;;;;;;-1.37;69.34;101170.88;6277636;22;20027;-94
2022/03/09 06:37:51;;;;;;;18.10;10.75;;;;;;;-1.24;69.09;101177.97;6278166;22;20062;-96
2022/03/09 06:40:21;;;;;;;18.65;10.98;;;;;;;-1.06;68.73;101201.63;6281788;22;20016;-96
2022/03/09 06:42:58;;;;;;;16.77;10.40;;;;;;;-1.11;68.20;101181.66;6286426;22;20024;-94
2022/03/09 06:45:30;;;;;;;21.90;11.18;;;;;;;-1.18;68.60;101162.50;6294689;22;20011;-93
2022/03/09 06:48:14;;;;;;;18.73;10.05;;;;;;;-0.92;67.72;101186.19;6280904;22;20043;-95
2022/03/09 06:50:50;;;;;;;17.63;10.68;;;;;;;-0.73;67.35;101202.91;6259009;22;20015;-91
2022/03/09 06:53:32;;;;;;;20.67;9.98;;;;;;;-0.74;67.03;101191.63;6283584;22;20034;-90
2022/03/09 06:56:01;;;;;;;17.00;10.18;;;;;;;-0.51;66.94;101217.91;6277082;22;20024;-90
2022/03/09 06:58:28;;;;;;;16.63;9.73;;;;;;;-0.70;65.47;101158.72;6259326;22;20015;-92
2022/03/09 07:01:21;;;;;;;14.80;9.70;;;;;;;-0.38;65.19;101209.38;6255534;22;20235;-94
2022/03/09 07:03:51;;;;;;;14.00;9.20;;;;;;;-0.28;64.95;101207.72;6260747;22;20030;-90
2022/03/09 07:06:19;;;;;;;16.42;9.80;;;;;;;-0.24;64.21;101198.22;6284588;22;20089;-94
2022/03/09 07:09:06;;;;;;;18.55;9.50;;;;;;;-0.28;63.63;101175.63;6277248;22;20471;-94
2022/03/09 07:11:53;;;;;;;17.30;9.65;;;;;;;-0.18;63.21;101175.72;6277484;22;20066;-93
2022/03/09 07:14:45;;;;;;;19.90;9.25;;;;;;;0.05;63.15;101199.34;6281208;22;20051;-90
2022/03/09 07:17:40;;;;;;;17.13;9.70;;;;;;;0.23;62.40;101216.88;6279796;22;20063;-96
2022/03/09 07:20:20;;;;;;;15.70;9.50;;;;;;;0.27;61.85;101213.44;6257414;22;20069;-94
2022/03/09 07:23:08;;;;;;;16.65;9.85;;;;;;;0.47;61.56;101224.88;6259009;22;20313;-95
2022/03/09 07:25:52;;;;;;;17.60;9.30;;;;;;;0.59;62.23;101218.88;6210766;22;20454;-93
2022/03/09 07:28:22;;;;;;;16.83;9.10;;;;;;;0.48;61.47;101181.44;6230854;22;20008;-96
2022/03/09 07:31:34;;;;;;;17.88;9.68;;;;;;;0.96;60.12;101231.25;6282239;22;20022;-95
2022/03/09 07:34:38;;;;;;;16.60;10.13;;;;;;;0.97;59.93;101212.13;6278440;22;20066;-96
2022/03/09 07:37:27;;;;;;;14.85;9.30;;;;;;;1.24;59.54;101223.59;6279519;22;20015;-94
2022/03/09 07:44:38;;;;;;;17.08;9.90;;;;;;;1.85;57.20;101262.94;6245374;22;20022;-95
2022/03/09 07:47:22;;;;;;;17.10;9.68;;;;;;;1.88;56.78;101250.75;6264404;22;20026;-95
2022/03/09 07:50:47;;;;;;;20.88;10.18;;;;;;;2.04;56.38;101262.13;6261827;22;20012;-95
2022/03/09 07:56:40;;;;;;;21.67;9.85;;;;;;;1.92;56.42;101200.25;6282938;22;20104;-95
2022/03/09 08:00:28;;;;;;;16.00;9.80;;;;;;;2.18;55.47;101213.34;6269986;22;20337;-95
2022/03/09 08:03:16;;;;;;;15.48;9.68;;;;;;;2.32;54.89;101219.44;6258945;22;20028;-93
2022/03/09 08:06:49;;;;;;;17.13;10.18;;;;;;;2.77;54.07;101272.56;6279715;22;20095;-96
2022/03/09 08:09:39;;;;;;;17.20;10.32;;;;;;;2.75;54.07;101256.00;6283257;22;20035;-93
2022/03/09 08:12:39;;;;;;;18.10;10.50;;;;;;;2.80;54.65;101235.94;6135077;23;20032;-96
2022/03/09 08:15:50;;;;;;;20.13;10.73;;;;;;;2.90;53.00;101211.50;6134312;23;20049;-93
2022/03/09 08:18:18;;;;;;;15.35;9.80;;;;;;;3.48;51.72;101268.88;6136332;23;20016;-95
2022/03/09 08:20:53;;;;;;;16.42;9.40;;;;;;;3.71;49.20;101261.81;6134540;23;20021;-94
2022/03/09 09:05:46;;;;;;;14.93;9.20;;;;;;;8.57;37.15;101236.03;6241062;22;20103;31
2022/03/09 09:08:55;;;;;;;15.07;9.57;;;;;;;8.97;35.39;101233.22;6230201;22;20024;-96
2022/03/09 09:11:48;;;;;;;;;;;;;;;;;;;;;
2022/03/09 09:20:27;;;;;;;;;;;;;;;;;;;;;
2022/03/09 09:23:39;;;;;;;17.10;9.85;;;;;;;10.95;31.95;101187.28;6145773;23;20075;-96
2022/03/09 09:26:38;;;;;;;15.98;9.68;;;;;;;10.59;32.17;101176.19;6161199;23;20014;-96
2022/03/09 09:29:23;;;;;;;13.45;9.15;;;;;;;10.90;32.15;101182.16;6223790;22;20362;-96
2022/03/09 09:31:52;;;;;;;13.20;8.95;;;;;;;11.18;31.50;101168.75;6281579;22;20090;-96
2022/03/09 09:34:22;;;;;;;14.13;9.50;;;;;;;11.24;30.82;101197.69;6248658;22;20035;-96
2022/03/09 09:36:52;;;;;;;16.10;9.52;;;;;;;11.13;30.50;101178.69;6277084;22;20027;-96
2022/03/09 09:39:22;;;;;;;14.73;9.30;;;;;;;11.34;30.49;101158.44;6277217;22;20242;-96
2022/03/09 09:42:08;;;;;;;13.10;8.80;;;;;;;11.78;29.91;101210.72;6280119;22;20007;-96
2022/03/09 09:44:41;;;;;;;15.52;9.35;;;;;;;11.98;29.27;101188.66;6274547;22;20194;-94
2022/03/09 09:47:13;;;;;;;15.63;9.93;;;;;;;12.21;29.57;101196.56;6282117;22;20075;-95
2022/03/09 09:49:41;;;;;;;14.50;9.52;;;;;;;12.23;28.82;101157.56;6280317;22;20016;-95
2022/03/09 09:52:29;;;;;;;11.80;9.10;;;;;;;12.74;28.76;101214.72;6255553;22;20480;-93
2022/03/09 09:54:59;;;;;;;15.45;9.82;;;;;;;12.94;27.57;101188.13;6287641;22;20082;-94
2022/03/09 09:57:29;;;;;;;12.25;9.13;;;;;;;13.36;27.65;101165.03;6283646;22;20016;-93
2022/03/09 10:00:13;;;;;;;13.77;9.35;;;;;;;14.43;26.06;101192.69;6257422;22;20016;-94
2022/03/09 10:03:12;;;;;;;11.05;9.00;;;;;;;15.04;25.37;101182.41;6209494;22;20059;-95
2022/03/09 10:05:45;;;;;;;14.38;9.10;;;;;;;15.46;24.68;101192.56;6292354;22;20076;-94
2022/03/09 10:08:22;;;;;;;13.27;9.50;;;;;;;15.44;24.33;101165.94;6262094;22;20493;-95
2022/03/09 10:11:01;;;;;;;11.45;9.40;;;;;;;15.73;24.41;101176.88;6256498;22;20022;-95
2022/03/09 10:13:33;;;;;;;14.40;9.55;;;;;;;16.03;23.69;101184.97;6279052;22;20007;-95
2022/03/09 10:16:21;;;;;;;16.52;9.40;;;;;;;16.05;23.77;101154.53;6277347;22;20059;-95
2022/03/09 10:28:06;;;;;;;15.23;9.20;;;;;;;15.62;24.76;101219.31;6181367;22;20022;31
2022/03/09 10:31:09;;;;;;;17.10;10.07;;;;;;;15.89;23.57;101206.25;6277922;22;20410;-95
2022/03/09 10:33:37;;;;;;;13.48;9.40;;;;;;;16.19;23.65;101193.81;6255416;22;20025;-95
2022/03/09 10:36:18;;;;;;;13.82;9.35;;;;;;;16.62;23.02;101177.94;6274285;22;20366;-93
2022/03/09 10:38:46;;;;;;;11.00;9.15;;;;;;;16.98;22.42;101158.84;6280574;22;20462;-94
2022/03/09 10:41:32;;;;;;;17.58;10.82;;;;;;;16.91;22.93;101185.09;6276949;22;20020;-96
2022/03/09 10:44:52;;;;;;;14.07;9.82;;;;;;;17.37;22.10;101225.09;6275617;22;20012;-95
2022/03/09 10:47:30;;;;;;;13.15;9.70;;;;;;;16.77;22.49;101195.78;6248832;22;20018;-95
2022/03/09 10:50:25;;;;;;;13.93;10.10;;;;;;;17.26;22.06;101231.13;6198091;22;20015;-94
2022/03/09 10:53:04;;;;;;;11.73;9.23;;;;;;;17.99;21.67;101201.53;6276635;22;20016;-94
2022/03/09 10:55:40;;;;;;;12.35;10.00;;;;;;;18.10;20.75;101190.97;6250613;22;20031;-96
2022/03/09 10:58:25;;;;;;;13.65;8.95;;;;;;;18.21;21.39;101164.31;6251884;22;20075;-94
2022/03/09 11:00:55;;;;;;;12.20;8.85;;;;;;;19.07;20.44;101207.63;6276458;22;20014;-94
2022/03/09 11:03:47;;;;;;;13.25;9.02;;;;;;;19.94;19.10;101219.31;6277095;22;20020;-93
2022/03/09 11:06:17;;;;;;;16.90;10.38;;;;;;;19.43;19.33;101188.94;6276031;22;20017;-94
2022/03/09 11:08:48;;;;;;;10.18;8.85;;;;;;;19.38;18.87;101155.31;6273336;22;20008;-95
2022/03/09 11:11:16;;;;;;;13.73;9.95;;;;;;;19.03;19.21;101190.91;6249530;22;20011;-93
2022/03/09 11:16:26;;;;;;;12.25;8.77;;;;;;;19.05;19.74;101150.50;6248630;22;20023;-96
2022/03/09 11:18:54;;;;;;;11.90;9.10;;;;;;;19.83;19.47;101167.31;6245402;22;20040;-93
2022/03/09 11:22:37;;;;;;;14.88;9.25;;;;;;;20.60;17.76;101139.09;6252021;23;20042;-93
2022/03/09 11:25:23;;;;;;;10.30;8.52;;;;;;;20.10;18.42;101126.75;6211608;22;20139;-95
2022/03/09 11:27:53;;;;;;;;;;;;;;;20.53;17.80;101179.03;6241738;23;20023;-96
2022/03/09 11:30:28;;;;;;;10.43;8.25;;;;;;;20.77;17.64;101129.72;6210997;22;19919;-96
2022/03/09 11:32:57;;;;;;;12.27;8.68;;;;;;;21.30;17.18;101136.25;6248553;23;20034;-96
2022/03/09 11:35:39;;;;;;;10.63;8.73;;;;;;;22.11;16.18;101141.28;6250000;23;20490;-95
2022/03/09 11:38:52;;;;;;;;;;;;;;;;;;;;;
2022/03/09 11:41:39;;;;;;;11.57;9.18;;;;;;;21.74;16.65;101134.47;6237732;23;20494;-95
2022/03/09 11:44:52;;;;;;;10.98;8.10;;;;;;;21.75;16.45;101133.50;6185066;23;20016;-95
2022/03/09 11:47:24;;;;;;;10.48;8.02;;;;;;;21.52;16.46;101138.09;6238563;22;20106;-94
2022/03/09 11:49:54;;;;;;;10.57;8.38;;;;;;;20.95;17.33;101142.56;6246381;23;20023;-94
2022/03/09 11:52:31;;;;;;;9.73;8.73;;;;;;;19.73;18.28;101136.69;6247698;23;20085;-94
2022/03/09 11:55:20;;;;;;;10.73;8.98;;;;;;;18.71;18.87;101128.75;6248411;23;20016;-96
2022/03/09 11:57:51;;;;;;;10.25;9.13;;;;;;;17.87;19.44;101131.69;6253605;23;20012;-95
2022/03/09 12:00:20;;;;;;;10.93;9.00;;;;;;;16.89;21.00;101137.97;6257956;23;20079;-94
2022/03/09 12:03:01;;;;;;;12.30;8.80;;;;;;;17.13;21.07;101160.56;6257719;22;20012;-94
2022/03/09 12:05:40;;;;;;;12.95;9.60;;;;;;;16.87;21.33;101158.63;6228894;23;20013;-94
2022/03/09 12:08:57;;;;;;;13.20;10.02;;;;;;;16.56;21.47;101149.75;6226455;23;20078;-96
2022/03/09 12:12:09;;;;;;;13.05;9.85;;;;;;;16.35;21.84;101151.91;6224590;23;20017;-94
2022/03/09 12:15:04;;;;;;;12.80;9.48;;;;;;;16.39;21.94;101152.56;6224425;23;20012;-94
2022/03/09 12:39:27;;;;;;;10.70;8.73;;;;;;;22.74;15.62;101128.72;6227706;22;20028;-96
2022/03/09 12:43:00;;;;;;;10.18;8.73;;;;;;;22.80;14.96;101130.06;6252482;23;20077;-93
2022/03/09 12:46:32;;;;;;;10.13;8.77;;;;;;;22.69;15.97;101128.25;6214554;23;20091;-94
2022/03/09 12:50:12;;;;;;;11.93;8.80;;;;;;;22.96;14.83;101116.94;6160493;23;20028;-95
2022/03/09 13:01:34;;;;;;;10.18;8.25;;;;;;;25.28;13.24;101105.28;6166991;23;20032;-94
2022/03/09 13:05:09;;;;;;;;;;;;;;;;;;;;;
2022/03/09 13:20:12;;;;;;;9.77;8.75;;;;;;;25.57;12.77;101040.06;6223330;23;20047;-95
2022/03/09 13:23:03;;;;;;;16.45;9.43;;;;;;;25.21;12.77;101041.81;6199280;23;20008;-93
2022/03/09 13:25:52;;;;;;;;;;;;;;;25.16;13.25;101072.13;6225624;23;20016;-93
2022/03/09 13:29:01;;;;;;;11.00;9.05;;;;;;;25.25;12.94;101043.25;6220370;23;19928;-95
2022/03/09 13:32:11;;;;;;;10.75;9.65;;;;;;;24.82;13.01;101063.66;6177306;23;20013;-94
2022/03/09 13:47:22;;;;;;;12.55;10.25;;;;;;;23.38;13.22;101012.28;6214018;23;20058;-94
2022/03/09 13:51:26;;;;;;;;;;;;;;;;;;;;;
2022/03/09 13:58:38;;;;;;;13.10;10.68;;;;;;;22.70;14.40;101030.91;6265380;22;20022;-96
2022/03/09 14:10:05;;;;;;;13.75;10.70;;;;;;;26.28;11.65;100993.91;6210697;22;20068;-96
2022/03/09 14:13:39;;;;;;;13.90;10.83;;;;;;;26.87;11.17;100992.25;6282103;22;20039;-95
2022/03/09 14:16:50;;;;;;;12.77;10.60;;;;;;;26.72;11.14;100970.28;6257825;22;20426;-96
2022/03/09 14:20:06;;;;;;;11.75;10.00;;;;;;;26.30;11.48;101029.06;6280834;22;20008;-95
2022/03/09 14:23:19;;;;;;;11.18;9.68;;;;;;;25.84;11.92;101028.31;6128409;23;20022;-96
2022/03/09 14:26:36;;;;;;;11.90;10.25;;;;;;;25.97;11.27;100973.66;6202734;22;20420;-95
2022/03/09 14:29:48;;;;;;;13.63;10.50;;;;;;;25.63;13.20;101006.09;6282726;22;20022;-96
2022/03/09 14:32:58;;;;;;;16.08;10.43;;;;;;;24.69;14.58;100971.06;6281157;22;20091;-95
2022/03/09 14:53:49;;;;;;;13.82;11.45;;;;;;;20.57;17.25;101005.63;6157807;23;20097;-94
2022/03/09 15:39:20;;;;;;;;;;;;;;;;;;;;;
2022/03/09 15:42:41;;;;;;;19.88;12.07;;;;;;;13.21;25.92;101010.56;6048422;23;20136;-94
2022/03/09 15:46:41;;;;;;;16.60;11.30;;;;;;;13.09;26.42;101010.22;6074350;23;20026;-94
2022/03/09 15:50:44;;;;;;;18.13;11.85;;;;;;;12.96;26.15;101016.13;6164058;23;20031;-93
2022/03/09 16:05:37;;;;;;;;;;;;;;;;;;;;;
2022/03/09 16:12:58;;;;;;;18.52;11.93;;;;;;;11.76;29.06;100983.50;6100525;23;20635;-94
2022/03/09 16:16:59;;;;;;;17.73;11.70;;;;;;;11.40;34.58;100972.59;6133770;23;20044;-93
2022/03/09 18:27:27;;;;;;;;;;;;;;;;;;;;;
2022/03/09 18:39:26;;;;;;;34.42;20.92;;;;;;;6.39;66.15;101124.81;6228638;23;20027;-93
2022/03/09 18:46:35;;;;;;;31.58;20.20;;;;;;;6.20;66.95;101120.75;6225955;23;20043;-92